sensor_id;sensor_type;location;lat;lon;timestamp;temperature;humidity
4520;DHT22;2272;49.226;8.108;2024-01-16T00:00:23;-3.80;99.90
4520;DHT22;2272;49.226;8.108;2024-01-16T00:02:50;-3.80;99.90
4520;DHT22;2272;49.226;8.108;2024-01-16T00:05:17;-3.90;99.90
4520;DHT22;2272;49.226;8.108;2024-01-16T00:07:44;-3.90;99.90
4520;DHT22;2272;49.226;8.108;2024-01-16T00:10:10;-3.90;99.90
4520;DHT22;2272;49.226;8.108;2024-01-16T00:12:37;-3.90;99.90
4520;DHT22;2272;49.226;8.108;2024-01-16T00:15:06;-3.90;99.90
4520;DHT22;2272;49.226;8.108;2024-01-16T00:17:34;-3.90;99.90
4520;DHT22;2272;49.226;8.108;2024-01-16T00:20:01;-3.90;99.90
4520;DHT22;2272;49.226;8.108;2024-01-16T00:22:30;-3.90;99.90
4520;DHT22;2272;49.226;8.108;2024-01-16T00:24:57;-3.90;99.90
4520;DHT22;2272;49.226;8.108;2024-01-16T00:27:24;-4.00;99.90
4520;DHT22;2272;49.226;8.108;2024-01-16T00:29:51;-4.10;99.90
4520;DHT22;2272;49.226;8.108;2024-01-16T00:32:18;-4.10;99.90
4520;DHT22;2272;49.226;8.108;2024-01-16T00:34:46;-4.20;99.90
4520;DHT22;2272;49.226;8.108;2024-01-16T00:37:13;-4.20;99.90
4520;DHT22;2272;49.226;8.108;2024-01-16T00:39:40;-4.30;99.90
4520;DHT22;2272;49.226;8.108;2024-01-16T00:42:07;-4.30;99.90
4520;DHT22;2272;49.226;8.108;2024-01-16T00:44:34;-4.20;99.90
4520;DHT22;2272;49.226;8.108;2024-01-16T00:47:01;-4.20;99.90
4520;DHT22;2272;49.226;8.108;2024-01-16T00:49:28;-4.20;99.90
4520;DHT22;2272;49.226;8.108;2024-01-16T00:51:56;-4.20;99.90
4520;DHT22;2272;49.226;8.108;2024-01-16T00:54:22;-4.20;99.90
4520;DHT22;2272;49.226;8.108;2024-01-16T00:56:49;-4.10;99.90
4520;DHT22;2272;49.226;8.108;2024-01-16T00:59:20;-4.10;99.90
4520;DHT22;2272;49.226;8.108;2024-01-16T01:01:47;-4.00;99.90
4520;DHT22;2272;49.226;8.108;2024-01-16T01:04:15;-3.90;99.90
4520;DHT22;2272;49.226;8.108;2024-01-16T01:06:42;-3.70;99.90
4520;DHT22;2272;49.226;8.108;2024-01-16T01:09:10;-3.70;99.90
4520;DHT22;2272;49.226;8.108;2024-01-16T01:11:37;-3.70;99.90
4520;DHT22;2272;49.226;8.108;2024-01-16T01:14:04;-3.60;99.90
4520;DHT22;2272;49.226;8.108;2024-01-16T01:16:31;-3.50;99.90
4520;DHT22;2272;49.226;8.108;2024-01-16T01:18:57;-3.40;99.90
4520;DHT22;2272;49.226;8.108;2024-01-16T01:21:24;-3.40;99.90
4520;DHT22;2272;49.226;8.108;2024-01-16T01:23:51;-3.40;99.90
4520;DHT22;2272;49.226;8.108;2024-01-16T01:26:19;-3.50;99.90
4520;DHT22;2272;49.226;8.108;2024-01-16T01:28:46;-3.50;99.90
4520;DHT22;2272;49.226;8.108;2024-01-16T01:31:13;-3.60;99.90
4520;DHT22;2272;49.226;8.108;2024-01-16T01:33:40;-3.70;99.90
4520;DHT22;2272;49.226;8.108;2024-01-16T01:36:07;-3.80;99.90
4520;DHT22;2272;49.226;8.108;2024-01-16T01:38:35;-3.90;99.90
4520;DHT22;2272;49.226;8.108;2024-01-16T01:41:02;-4.00;99.90
4520;DHT22;2272;49.226;8.108;2024-01-16T01:43:30;-4.10;99.90
4520;DHT22;2272;49.226;8.108;2024-01-16T01:46:09;-4.10;99.90
4520;DHT22;2272;49.226;8.108;2024-01-16T01:48:37;-4.30;99.90
4520;DHT22;2272;49.226;8.108;2024-01-16T01:51:04;-4.30;99.90
4520;DHT22;2272;49.226;8.108;2024-01-16T01:53:31;-4.30;99.90
4520;DHT22;2272;49.226;8.108;2024-01-16T01:56:03;-4.30;99.90
4520;DHT22;2272;49.226;8.108;2024-01-16T01:58:32;-4.20;99.90
4520;DHT22;2272;49.226;8.108;2024-01-16T02:01:00;-4.20;99.90
4520;DHT22;2272;49.226;8.108;2024-01-16T02:03:27;-4.30;99.90
4520;DHT22;2272;49.226;8.108;2024-01-16T02:05:56;-4.20;99.90
4520;DHT22;2272;49.226;8.108;2024-01-16T02:08:23;-4.30;99.90
4520;DHT22;2272;49.226;8.108;2024-01-16T02:10:50;-4.30;99.90
4520;DHT22;2272;49.226;8.108;2024-01-16T02:13:19;-4.30;99.90
4520;DHT22;2272;49.226;8.108;2024-01-16T02:15:50;-4.30;99.90
4520;DHT22;2272;49.226;8.108;2024-01-16T02:18:17;-4.30;99.90
4520;DHT22;2272;49.226;8.108;2024-01-16T02:20:44;-4.30;99.90
4520;DHT22;2272;49.226;8.108;2024-01-16T02:23:14;-4.30;99.90
4520;DHT22;2272;49.226;8.108;2024-01-16T02:25:44;-4.30;99.90
4520;DHT22;2272;49.226;8.108;2024-01-16T02:28:11;-4.20;99.90
4520;DHT22;2272;49.226;8.108;2024-01-16T02:30:38;-4.20;99.90
4520;DHT22;2272;49.226;8.108;2024-01-16T02:33:06;-4.20;99.90
4520;DHT22;2272;49.226;8.108;2024-01-16T02:35:33;-4.20;99.90
4520;DHT22;2272;49.226;8.108;2024-01-16T02:38:00;-4.10;99.90
4520;DHT22;2272;49.226;8.108;2024-01-16T02:40:27;-4.10;99.90
4520;DHT22;2272;49.226;8.108;2024-01-16T02:42:55;-4.00;99.90
4520;DHT22;2272;49.226;8.108;2024-01-16T02:45:21;-3.80;99.90
4520;DHT22;2272;49.226;8.108;2024-01-16T02:47:48;-3.70;99.90
4520;DHT22;2272;49.226;8.108;2024-01-16T02:50:16;-3.50;99.90
4520;DHT22;2272;49.226;8.108;2024-01-16T02:52:43;-3.30;99.90
4520;DHT22;2272;49.226;8.108;2024-01-16T02:55:10;-3.10;99.90
4520;DHT22;2272;49.226;8.108;2024-01-16T02:57:36;-3.00;99.90
4520;DHT22;2272;49.226;8.108;2024-01-16T03:00:06;-2.90;99.90
4520;DHT22;2272;49.226;8.108;2024-01-16T03:02:33;-2.80;99.90
4520;DHT22;2272;49.226;8.108;2024-01-16T03:05:01;-2.80;99.90
4520;DHT22;2272;49.226;8.108;2024-01-16T03:07:29;-2.90;99.90
4520;DHT22;2272;49.226;8.108;2024-01-16T03:09:55;-3.00;99.90
4520;DHT22;2272;49.226;8.108;2024-01-16T03:12:23;-3.20;99.90
4520;DHT22;2272;49.226;8.108;2024-01-16T03:14:49;-3.30;99.90
4520;DHT22;2272;49.226;8.108;2024-01-16T03:17:17;-3.30;99.90
4520;DHT22;2272;49.226;8.108;2024-01-16T03:19:44;-3.30;99.90
4520;DHT22;2272;49.226;8.108;2024-01-16T03:22:11;-3.50;99.90
4520;DHT22;2272;49.226;8.108;2024-01-16T03:24:38;-3.70;99.90
4520;DHT22;2272;49.226;8.108;2024-01-16T03:27:05;-3.80;99.90
4520;DHT22;2272;49.226;8.108;2024-01-16T03:29:31;-3.90;99.90
4520;DHT22;2272;49.226;8.108;2024-01-16T03:31:59;-4.00;99.90
4520;DHT22;2272;49.226;8.108;2024-01-16T03:34:31;-4.10;99.90
4520;DHT22;2272;49.226;8.108;2024-01-16T03:36:58;-4.10;99.90
4520;DHT22;2272;49.226;8.108;2024-01-16T03:39:26;-4.10;99.90
4520;DHT22;2272;49.226;8.108;2024-01-16T03:41:53;-4.00;99.90
4520;DHT22;2272;49.226;8.108;2024-01-16T03:44:21;-3.90;99.90
4520;DHT22;2272;49.226;8.108;2024-01-16T03:46:48;-3.90;99.90
4520;DHT22;2272;49.226;8.108;2024-01-16T03:49:15;-3.90;99.90
4520;DHT22;2272;49.226;8.108;2024-01-16T03:51:43;-3.90;99.90
4520;DHT22;2272;49.226;8.108;2024-01-16T03:54:11;-3.80;99.90
4520;DHT22;2272;49.226;8.108;2024-01-16T03:56:38;-3.90;99.90
4520;DHT22;2272;49.226;8.108;2024-01-16T03:59:05;-3.90;99.90
4520;DHT22;2272;49.226;8.108;2024-01-16T04:01:32;-3.80;99.90
4520;DHT22;2272;49.226;8.108;2024-01-16T04:03:59;-3.90;99.90
4520;DHT22;2272;49.226;8.108;2024-01-16T04:06:26;-4.00;99.90
4520;DHT22;2272;49.226;8.108;2024-01-16T04:08:55;-3.90;99.90
4520;DHT22;2272;49.226;8.108;2024-01-16T04:11:22;-4.00;99.90
4520;DHT22;2272;49.226;8.108;2024-01-16T04:13:49;-4.00;99.90
4520;DHT22;2272;49.226;8.108;2024-01-16T04:16:16;-4.00;99.90
4520;DHT22;2272;49.226;8.108;2024-01-16T04:18:43;-4.00;99.90
4520;DHT22;2272;49.226;8.108;2024-01-16T04:21:10;-4.00;99.90
4520;DHT22;2272;49.226;8.108;2024-01-16T04:23:37;-4.00;99.90
4520;DHT22;2272;49.226;8.108;2024-01-16T04:26:06;-4.10;99.90
4520;DHT22;2272;49.226;8.108;2024-01-16T04:28:33;-4.10;99.90
4520;DHT22;2272;49.226;8.108;2024-01-16T04:31:02;-4.20;99.90
4520;DHT22;2272;49.226;8.108;2024-01-16T04:33:29;-4.30;99.90
4520;DHT22;2272;49.226;8.108;2024-01-16T04:35:57;-4.30;99.90
4520;DHT22;2272;49.226;8.108;2024-01-16T04:38:24;-4.30;99.90
4520;DHT22;2272;49.226;8.108;2024-01-16T04:40:51;-4.40;99.90
4520;DHT22;2272;49.226;8.108;2024-01-16T04:43:19;-4.50;99.90
4520;DHT22;2272;49.226;8.108;2024-01-16T04:45:46;-4.50;99.90
4520;DHT22;2272;49.226;8.108;2024-01-16T04:48:13;-4.60;99.90
4520;DHT22;2272;49.226;8.108;2024-01-16T04:50:39;-4.60;99.90
4520;DHT22;2272;49.226;8.108;2024-01-16T04:53:06;-4.60;99.90
4520;DHT22;2272;49.226;8.108;2024-01-16T04:55:33;-4.70;99.90
4520;DHT22;2272;49.226;8.108;2024-01-16T04:58:00;-4.70;99.90
4520;DHT22;2272;49.226;8.108;2024-01-16T05:00:28;-4.70;99.90
4520;DHT22;2272;49.226;8.108;2024-01-16T05:02:54;-4.80;99.90
4520;DHT22;2272;49.226;8.108;2024-01-16T05:05:20;-4.80;99.90
4520;DHT22;2272;49.226;8.108;2024-01-16T05:07:47;-4.80;99.90
4520;DHT22;2272;49.226;8.108;2024-01-16T05:10:14;-4.80;99.90
4520;DHT22;2272;49.226;8.108;2024-01-16T05:12:41;-4.80;99.90
4520;DHT22;2272;49.226;8.108;2024-01-16T05:15:09;-4.90;99.90
4520;DHT22;2272;49.226;8.108;2024-01-16T05:17:39;-4.90;99.90
4520;DHT22;2272;49.226;8.108;2024-01-16T05:20:06;-4.90;99.90
4520;DHT22;2272;49.226;8.108;2024-01-16T05:22:34;-4.90;99.90
4520;DHT22;2272;49.226;8.108;2024-01-16T05:24:59;-4.90;99.90
4520;DHT22;2272;49.226;8.108;2024-01-16T05:27:26;-4.90;99.90
4520;DHT22;2272;49.226;8.108;2024-01-16T05:29:53;-4.90;99.90
4520;DHT22;2272;49.226;8.108;2024-01-16T05:32:20;-4.90;99.90
4520;DHT22;2272;49.226;8.108;2024-01-16T05:34:48;-5.00;99.90
4520;DHT22;2272;49.226;8.108;2024-01-16T05:37:15;-4.90;99.90
4520;DHT22;2272;49.226;8.108;2024-01-16T05:39:42;-4.90;99.90
4520;DHT22;2272;49.226;8.108;2024-01-16T05:42:09;-4.90;99.90
4520;DHT22;2272;49.226;8.108;2024-01-16T05:44:36;-4.90;99.90
4520;DHT22;2272;49.226;8.108;2024-01-16T05:47:04;-4.90;99.90
4520;DHT22;2272;49.226;8.108;2024-01-16T05:49:31;-4.80;99.90
4520;DHT22;2272;49.226;8.108;2024-01-16T05:51:59;-4.80;99.90
4520;DHT22;2272;49.226;8.108;2024-01-16T05:54:26;-4.80;99.90
4520;DHT22;2272;49.226;8.108;2024-01-16T05:56:52;-4.80;99.90
4520;DHT22;2272;49.226;8.108;2024-01-16T05:59:19;-4.80;99.90
4520;DHT22;2272;49.226;8.108;2024-01-16T06:01:46;-4.70;99.90
4520;DHT22;2272;49.226;8.108;2024-01-16T06:04:14;-4.70;99.90
4520;DHT22;2272;49.226;8.108;2024-01-16T06:06:41;-4.70;99.90
4520;DHT22;2272;49.226;8.108;2024-01-16T06:09:12;-4.60;99.90
4520;DHT22;2272;49.226;8.108;2024-01-16T06:11:40;-4.60;99.90
4520;DHT22;2272;49.226;8.108;2024-01-16T06:14:07;-4.60;99.90
4520;DHT22;2272;49.226;8.108;2024-01-16T06:16:34;-4.60;99.90
4520;DHT22;2272;49.226;8.108;2024-01-16T06:19:01;-4.60;99.90
4520;DHT22;2272;49.226;8.108;2024-01-16T06:21:28;-4.60;99.90
4520;DHT22;2272;49.226;8.108;2024-01-16T06:23:55;-4.50;99.90
4520;DHT22;2272;49.226;8.108;2024-01-16T06:26:23;-4.40;99.90
4520;DHT22;2272;49.226;8.108;2024-01-16T06:28:50;-4.30;99.90
4520;DHT22;2272;49.226;8.108;2024-01-16T06:31:16;-4.30;99.90
4520;DHT22;2272;49.226;8.108;2024-01-16T06:33:43;-4.30;99.90
4520;DHT22;2272;49.226;8.108;2024-01-16T06:36:10;-4.20;99.90
4520;DHT22;2272;49.226;8.108;2024-01-16T06:38:38;-4.20;99.90
4520;DHT22;2272;49.226;8.108;2024-01-16T06:41:05;-4.10;99.90
4520;DHT22;2272;49.226;8.108;2024-01-16T06:43:33;-4.00;99.90
4520;DHT22;2272;49.226;8.108;2024-01-16T06:46:00;-3.90;99.90
4520;DHT22;2272;49.226;8.108;2024-01-16T06:48:27;-3.80;99.90
4520;DHT22;2272;49.226;8.108;2024-01-16T06:50:53;-3.70;99.90
4520;DHT22;2272;49.226;8.108;2024-01-16T06:53:20;-3.70;99.90
4520;DHT22;2272;49.226;8.108;2024-01-16T06:55:47;-3.60;99.90
4520;DHT22;2272;49.226;8.108;2024-01-16T06:58:14;-3.60;99.90
4520;DHT22;2272;49.226;8.108;2024-01-16T07:00:42;-3.60;99.90
4520;DHT22;2272;49.226;8.108;2024-01-16T07:03:10;-3.50;99.90
4520;DHT22;2272;49.226;8.108;2024-01-16T07:05:37;-3.50;99.90
4520;DHT22;2272;49.226;8.108;2024-01-16T07:08:04;-3.40;99.90
4520;DHT22;2272;49.226;8.108;2024-01-16T07:10:30;-3.30;99.90
4520;DHT22;2272;49.226;8.108;2024-01-16T07:12:57;-3.20;99.90
4520;DHT22;2272;49.226;8.108;2024-01-16T07:15:24;-3.10;99.90
4520;DHT22;2272;49.226;8.108;2024-01-16T07:17:52;-3.00;99.90
4520;DHT22;2272;49.226;8.108;2024-01-16T07:20:19;-3.00;99.90
4520;DHT22;2272;49.226;8.108;2024-01-16T07:22:46;-3.00;99.90
4520;DHT22;2272;49.226;8.108;2024-01-16T07:25:13;-3.00;99.90
4520;DHT22;2272;49.226;8.108;2024-01-16T07:27:39;-3.00;99.90
4520;DHT22;2272;49.226;8.108;2024-01-16T07:30:08;-3.00;99.90
4520;DHT22;2272;49.226;8.108;2024-01-16T07:32:35;-3.00;99.90
4520;DHT22;2272;49.226;8.108;2024-01-16T07:35:04;-3.00;99.90
4520;DHT22;2272;49.226;8.108;2024-01-16T07:37:31;-3.00;99.90
4520;DHT22;2272;49.226;8.108;2024-01-16T07:39:58;-3.00;99.90
4520;DHT22;2272;49.226;8.108;2024-01-16T07:42:24;-3.10;99.90
4520;DHT22;2272;49.226;8.108;2024-01-16T07:44:52;-3.20;99.90
4520;DHT22;2272;49.226;8.108;2024-01-16T07:47:20;-3.40;99.90
4520;DHT22;2272;49.226;8.108;2024-01-16T07:49:47;-3.50;99.90
4520;DHT22;2272;49.226;8.108;2024-01-16T07:52:15;-3.60;99.90
4520;DHT22;2272;49.226;8.108;2024-01-16T07:54:42;-3.70;99.90
4520;DHT22;2272;49.226;8.108;2024-01-16T07:57:09;-3.80;99.90
4520;DHT22;2272;49.226;8.108;2024-01-16T07:59:37;-3.80;99.90
4520;DHT22;2272;49.226;8.108;2024-01-16T08:02:04;-3.90;99.90
4520;DHT22;2272;49.226;8.108;2024-01-16T08:04:31;-3.90;99.90
4520;DHT22;2272;49.226;8.108;2024-01-16T08:06:58;-3.90;99.90
4520;DHT22;2272;49.226;8.108;2024-01-16T08:09:26;-3.90;99.90
4520;DHT22;2272;49.226;8.108;2024-01-16T08:11:53;-4.00;99.90
4520;DHT22;2272;49.226;8.108;2024-01-16T08:14:20;-4.00;99.90
4520;DHT22;2272;49.226;8.108;2024-01-16T08:16:46;-4.00;99.90
4520;DHT22;2272;49.226;8.108;2024-01-16T08:19:14;-3.90;99.90
4520;DHT22;2272;49.226;8.108;2024-01-16T08:21:40;-3.90;99.90
4520;DHT22;2272;49.226;8.108;2024-01-16T08:24:07;-3.80;99.90
4520;DHT22;2272;49.226;8.108;2024-01-16T08:26:35;-3.80;99.90
4520;DHT22;2272;49.226;8.108;2024-01-16T08:29:02;-3.70;99.90
4520;DHT22;2272;49.226;8.108;2024-01-16T08:31:29;-3.60;99.90
4520;DHT22;2272;49.226;8.108;2024-01-16T08:33:55;-3.50;99.90
4520;DHT22;2272;49.226;8.108;2024-01-16T08:36:22;-3.40;99.90
4520;DHT22;2272;49.226;8.108;2024-01-16T08:38:49;-3.20;99.90
4520;DHT22;2272;49.226;8.108;2024-01-16T08:41:16;-3.00;99.90
4520;DHT22;2272;49.226;8.108;2024-01-16T08:43:44;-2.90;99.90
4520;DHT22;2272;49.226;8.108;2024-01-16T08:46:10;-2.80;99.90
4520;DHT22;2272;49.226;8.108;2024-01-16T08:48:37;-2.70;99.90
4520;DHT22;2272;49.226;8.108;2024-01-16T08:51:07;-2.60;99.90
4520;DHT22;2272;49.226;8.108;2024-01-16T08:53:34;-2.50;99.90
4520;DHT22;2272;49.226;8.108;2024-01-16T08:56:01;-2.40;99.90
4520;DHT22;2272;49.226;8.108;2024-01-16T08:58:29;-2.30;99.90
4520;DHT22;2272;49.226;8.108;2024-01-16T09:00:59;-2.20;99.90
4520;DHT22;2272;49.226;8.108;2024-01-16T09:03:26;-2.10;99.90
4520;DHT22;2272;49.226;8.108;2024-01-16T09:05:53;-2.00;99.90
4520;DHT22;2272;49.226;8.108;2024-01-16T09:08:19;-1.90;99.90
4520;DHT22;2272;49.226;8.108;2024-01-16T09:10:46;-1.90;99.90
4520;DHT22;2272;49.226;8.108;2024-01-16T09:13:13;-1.80;99.90
4520;DHT22;2272;49.226;8.108;2024-01-16T09:15:40;-1.70;99.90
4520;DHT22;2272;49.226;8.108;2024-01-16T09:18:08;-1.70;99.90
4520;DHT22;2272;49.226;8.108;2024-01-16T09:20:35;-1.60;99.90
4520;DHT22;2272;49.226;8.108;2024-01-16T09:23:02;-1.50;99.90
4520;DHT22;2272;49.226;8.108;2024-01-16T09:25:29;-1.40;99.90
4520;DHT22;2272;49.226;8.108;2024-01-16T09:27:55;-1.30;99.90
4520;DHT22;2272;49.226;8.108;2024-01-16T09:30:22;-1.10;99.90
4520;DHT22;2272;49.226;8.108;2024-01-16T09:32:49;-1.00;99.90
4520;DHT22;2272;49.226;8.108;2024-01-16T09:35:17;-0.80;99.90
4520;DHT22;2272;49.226;8.108;2024-01-16T09:37:44;-0.70;99.90
4520;DHT22;2272;49.226;8.108;2024-01-16T09:40:11;-0.60;99.90
4520;DHT22;2272;49.226;8.108;2024-01-16T09:42:39;-0.50;99.90
4520;DHT22;2272;49.226;8.108;2024-01-16T09:45:07;-0.40;99.90
4520;DHT22;2272;49.226;8.108;2024-01-16T09:47:37;-0.20;99.90
4520;DHT22;2272;49.226;8.108;2024-01-16T09:50:05;0.00;99.90
4520;DHT22;2272;49.226;8.108;2024-01-16T09:52:33;0.20;99.90
4520;DHT22;2272;49.226;8.108;2024-01-16T09:55:00;0.40;99.90
4520;DHT22;2272;49.226;8.108;2024-01-16T09:57:27;0.70;99.90
4520;DHT22;2272;49.226;8.108;2024-01-16T09:59:56;0.90;99.90
4520;DHT22;2272;49.226;8.108;2024-01-16T10:02:24;1.00;99.90
4520;DHT22;2272;49.226;8.108;2024-01-16T10:04:51;1.00;99.90
4520;DHT22;2272;49.226;8.108;2024-01-16T10:07:19;1.00;99.90
4520;DHT22;2272;49.226;8.108;2024-01-16T10:09:52;1.00;99.90
4520;DHT22;2272;49.226;8.108;2024-01-16T10:12:19;1.10;99.90
4520;DHT22;2272;49.226;8.108;2024-01-16T10:14:46;1.20;99.90
4520;DHT22;2272;49.226;8.108;2024-01-16T10:17:13;1.30;99.90
4520;DHT22;2272;49.226;8.108;2024-01-16T10:19:52;1.40;99.90
4520;DHT22;2272;49.226;8.108;2024-01-16T10:22:20;1.50;99.90
4520;DHT22;2272;49.226;8.108;2024-01-16T10:24:51;1.60;99.90
4520;DHT22;2272;49.226;8.108;2024-01-16T10:27:21;1.80;99.90
4520;DHT22;2272;49.226;8.108;2024-01-16T10:29:55;1.90;99.90
4520;DHT22;2272;49.226;8.108;2024-01-16T10:32:30;2.10;99.90
4520;DHT22;2272;49.226;8.108;2024-01-16T10:35:04;2.20;99.90
4520;DHT22;2272;49.226;8.108;2024-01-16T10:37:40;2.40;99.90
4520;DHT22;2272;49.226;8.108;2024-01-16T10:40:09;2.60;99.90
4520;DHT22;2272;49.226;8.108;2024-01-16T10:42:36;2.90;99.90
4520;DHT22;2272;49.226;8.108;2024-01-16T10:45:04;3.10;99.90
4520;DHT22;2272;49.226;8.108;2024-01-16T10:47:31;3.20;99.90
4520;DHT22;2272;49.226;8.108;2024-01-16T10:50:00;3.20;99.90
4520;DHT22;2272;49.226;8.108;2024-01-16T10:52:28;3.30;99.90
4520;DHT22;2272;49.226;8.108;2024-01-16T10:54:57;3.30;99.90
4520;DHT22;2272;49.226;8.108;2024-01-16T10:57:30;3.30;99.90
4520;DHT22;2272;49.226;8.108;2024-01-16T11:00:02;3.40;99.90
4520;DHT22;2272;49.226;8.108;2024-01-16T11:02:35;3.40;99.90
4520;DHT22;2272;49.226;8.108;2024-01-16T11:05:04;3.30;99.90
4520;DHT22;2272;49.226;8.108;2024-01-16T11:07:33;3.20;99.90
4520;DHT22;2272;49.226;8.108;2024-01-16T11:10:02;3.20;99.90
4520;DHT22;2272;49.226;8.108;2024-01-16T11:12:30;3.30;99.90
4520;DHT22;2272;49.226;8.108;2024-01-16T11:15:00;3.40;99.90
4520;DHT22;2272;49.226;8.108;2024-01-16T11:17:28;3.40;99.90
4520;DHT22;2272;49.226;8.108;2024-01-16T11:19:57;3.50;99.90
4520;DHT22;2272;49.226;8.108;2024-01-16T11:22:24;3.60;99.90
4520;DHT22;2272;49.226;8.108;2024-01-16T11:25:07;3.80;99.90
4520;DHT22;2272;49.226;8.108;2024-01-16T11:27:35;3.90;99.90
4520;DHT22;2272;49.226;8.108;2024-01-16T11:30:03;3.90;99.90
4520;DHT22;2272;49.226;8.108;2024-01-16T11:32:34;4.00;99.90
4520;DHT22;2272;49.226;8.108;2024-01-16T11:35:01;4.40;99.90
4520;DHT22;2272;49.226;8.108;2024-01-16T11:37:29;4.70;99.90
4520;DHT22;2272;49.226;8.108;2024-01-16T11:40:20;4.80;99.90
4520;DHT22;2272;49.226;8.108;2024-01-16T11:42:49;5.00;99.90
4520;DHT22;2272;49.226;8.108;2024-01-16T11:45:48;5.00;99.90
4520;DHT22;2272;49.226;8.108;2024-01-16T11:48:19;5.10;99.90
4520;DHT22;2272;49.226;8.108;2024-01-16T11:50:47;4.90;99.90
4520;DHT22;2272;49.226;8.108;2024-01-16T11:53:34;4.80;99.90
4520;DHT22;2272;49.226;8.108;2024-01-16T11:56:26;4.60;99.90
4520;DHT22;2272;49.226;8.108;2024-01-16T11:59:08;4.50;99.90
4520;DHT22;2272;49.226;8.108;2024-01-16T12:01:45;4.50;99.90
4520;DHT22;2272;49.226;8.108;2024-01-16T12:04:14;4.30;99.90
4520;DHT22;2272;49.226;8.108;2024-01-16T12:06:57;4.20;99.90
4520;DHT22;2272;49.226;8.108;2024-01-16T12:09:26;4.00;99.90
4520;DHT22;2272;49.226;8.108;2024-01-16T12:11:57;3.90;99.90
4520;DHT22;2272;49.226;8.108;2024-01-16T12:14:26;3.80;99.90
4520;DHT22;2272;49.226;8.108;2024-01-16T12:16:53;3.60;99.90
4520;DHT22;2272;49.226;8.108;2024-01-16T12:19:19;3.40;99.90
4520;DHT22;2272;49.226;8.108;2024-01-16T12:21:46;3.10;99.90
4520;DHT22;2272;49.226;8.108;2024-01-16T12:24:13;2.90;99.90
4520;DHT22;2272;49.226;8.108;2024-01-16T12:26:41;2.70;99.90
4520;DHT22;2272;49.226;8.108;2024-01-16T12:29:08;2.60;99.90
4520;DHT22;2272;49.226;8.108;2024-01-16T12:31:36;2.50;99.90
4520;DHT22;2272;49.226;8.108;2024-01-16T12:34:06;2.50;99.90
4520;DHT22;2272;49.226;8.108;2024-01-16T12:36:36;2.50;99.90
4520;DHT22;2272;49.226;8.108;2024-01-16T12:39:04;2.60;99.90
4520;DHT22;2272;49.226;8.108;2024-01-16T12:41:34;2.60;99.90
4520;DHT22;2272;49.226;8.108;2024-01-16T12:47:18;2.50;99.90
4520;DHT22;2272;49.226;8.108;2024-01-16T12:49:51;2.50;99.90
4520;DHT22;2272;49.226;8.108;2024-01-16T12:52:20;2.50;99.90
4520;DHT22;2272;49.226;8.108;2024-01-16T12:54:47;2.40;99.90
4520;DHT22;2272;49.226;8.108;2024-01-16T12:57:18;2.40;99.90
4520;DHT22;2272;49.226;8.108;2024-01-16T12:59:47;2.30;99.90
4520;DHT22;2272;49.226;8.108;2024-01-16T13:02:22;2.30;99.90
4520;DHT22;2272;49.226;8.108;2024-01-16T13:04:56;2.40;99.90
4520;DHT22;2272;49.226;8.108;2024-01-16T13:07:24;2.30;99.90
4520;DHT22;2272;49.226;8.108;2024-01-16T13:10:05;2.30;99.90
4520;DHT22;2272;49.226;8.108;2024-01-16T13:12:33;2.30;99.90
4520;DHT22;2272;49.226;8.108;2024-01-16T13:15:01;2.30;99.90
4520;DHT22;2272;49.226;8.108;2024-01-16T13:17:32;2.40;99.90
4520;DHT22;2272;49.226;8.108;2024-01-16T13:19:59;2.40;99.90
4520;DHT22;2272;49.226;8.108;2024-01-16T13:22:26;2.40;99.90
4520;DHT22;2272;49.226;8.108;2024-01-16T13:24:53;2.40;99.90
4520;DHT22;2272;49.226;8.108;2024-01-16T13:27:19;2.40;99.90
4520;DHT22;2272;49.226;8.108;2024-01-16T13:29:46;2.40;99.90
4520;DHT22;2272;49.226;8.108;2024-01-16T13:32:13;2.40;99.90
4520;DHT22;2272;49.226;8.108;2024-01-16T13:34:41;2.40;99.90
4520;DHT22;2272;49.226;8.108;2024-01-16T13:37:15;2.40;99.90
4520;DHT22;2272;49.226;8.108;2024-01-16T13:39:44;2.40;99.90
4520;DHT22;2272;49.226;8.108;2024-01-16T13:42:10;2.40;99.90
4520;DHT22;2272;49.226;8.108;2024-01-16T13:44:37;2.40;99.90
4520;DHT22;2272;49.226;8.108;2024-01-16T13:47:04;2.40;99.90
4520;DHT22;2272;49.226;8.108;2024-01-16T13:49:31;2.30;99.90
4520;DHT22;2272;49.226;8.108;2024-01-16T13:52:00;2.30;99.90
4520;DHT22;2272;49.226;8.108;2024-01-16T13:54:26;2.30;99.90
4520;DHT22;2272;49.226;8.108;2024-01-16T13:56:53;2.20;99.90
4520;DHT22;2272;49.226;8.108;2024-01-16T13:59:20;2.20;99.90
4520;DHT22;2272;49.226;8.108;2024-01-16T14:01:47;2.10;99.90
4520;DHT22;2272;49.226;8.108;2024-01-16T14:04:14;2.10;99.90
4520;DHT22;2272;49.226;8.108;2024-01-16T14:06:41;2.10;99.90
4520;DHT22;2272;49.226;8.108;2024-01-16T14:09:09;2.10;99.90
4520;DHT22;2272;49.226;8.108;2024-01-16T14:11:36;2.10;99.90
4520;DHT22;2272;49.226;8.108;2024-01-16T14:14:03;2.00;99.90
4520;DHT22;2272;49.226;8.108;2024-01-16T14:16:30;2.10;99.90
4520;DHT22;2272;49.226;8.108;2024-01-16T14:18:58;2.00;99.90
4520;DHT22;2272;49.226;8.108;2024-01-16T14:21:24;2.00;99.90
4520;DHT22;2272;49.226;8.108;2024-01-16T14:23:51;1.90;99.90
4520;DHT22;2272;49.226;8.108;2024-01-16T14:26:20;1.80;99.90
4520;DHT22;2272;49.226;8.108;2024-01-16T14:28:47;1.70;99.90
4520;DHT22;2272;49.226;8.108;2024-01-16T14:31:15;1.60;99.90
4520;DHT22;2272;49.226;8.108;2024-01-16T14:33:43;1.50;99.90
4520;DHT22;2272;49.226;8.108;2024-01-16T14:36:10;1.40;99.90
4520;DHT22;2272;49.226;8.108;2024-01-16T14:38:36;1.30;99.90
4520;DHT22;2272;49.226;8.108;2024-01-16T14:41:03;1.30;99.90
4520;DHT22;2272;49.226;8.108;2024-01-16T14:43:32;1.20;99.90
4520;DHT22;2272;49.226;8.108;2024-01-16T14:46:00;1.10;99.90
4520;DHT22;2272;49.226;8.108;2024-01-16T14:48:29;1.10;99.90
4520;DHT22;2272;49.226;8.108;2024-01-16T14:50:56;1.00;99.90
4520;DHT22;2272;49.226;8.108;2024-01-16T14:53:26;0.90;99.90
4520;DHT22;2272;49.226;8.108;2024-01-16T14:55:53;0.80;99.90
4520;DHT22;2272;49.226;8.108;2024-01-16T14:58:20;0.70;99.90
4520;DHT22;2272;49.226;8.108;2024-01-16T15:00:50;0.60;99.90
4520;DHT22;2272;49.226;8.108;2024-01-16T15:03:19;0.50;99.90
4520;DHT22;2272;49.226;8.108;2024-01-16T15:05:46;0.50;99.90
4520;DHT22;2272;49.226;8.108;2024-01-16T15:08:13;0.40;99.90
4520;DHT22;2272;49.226;8.108;2024-01-16T15:10:40;0.30;99.90
4520;DHT22;2272;49.226;8.108;2024-01-16T15:13:07;0.20;99.90
4520;DHT22;2272;49.226;8.108;2024-01-16T15:15:35;0.10;99.90
4520;DHT22;2272;49.226;8.108;2024-01-16T15:18:04;0.00;99.90
4520;DHT22;2272;49.226;8.108;2024-01-16T15:20:31;-0.10;99.90
4520;DHT22;2272;49.226;8.108;2024-01-16T15:22:57;-0.30;99.90
4520;DHT22;2272;49.226;8.108;2024-01-16T15:25:25;-0.40;99.90
4520;DHT22;2272;49.226;8.108;2024-01-16T15:27:52;-0.50;99.90
4520;DHT22;2272;49.226;8.108;2024-01-16T15:30:20;-0.60;99.90
4520;DHT22;2272;49.226;8.108;2024-01-16T15:32:48;-0.70;99.90
4520;DHT22;2272;49.226;8.108;2024-01-16T15:35:17;-0.90;99.90
4520;DHT22;2272;49.226;8.108;2024-01-16T15:37:48;-1.00;99.90
4520;DHT22;2272;49.226;8.108;2024-01-16T15:40:15;-1.10;99.90
4520;DHT22;2272;49.226;8.108;2024-01-16T15:42:43;-1.30;99.90
4520;DHT22;2272;49.226;8.108;2024-01-16T15:45:10;-1.40;99.90
4520;DHT22;2272;49.226;8.108;2024-01-16T15:47:37;-1.50;99.90
4520;DHT22;2272;49.226;8.108;2024-01-16T15:50:05;-1.70;99.90
4520;DHT22;2272;49.226;8.108;2024-01-16T15:52:34;-1.80;99.90
4520;DHT22;2272;49.226;8.108;2024-01-16T15:55:01;-1.90;99.90
4520;DHT22;2272;49.226;8.108;2024-01-16T15:57:28;-2.00;99.90
4520;DHT22;2272;49.226;8.108;2024-01-16T15:59:55;-2.10;99.90
4520;DHT22;2272;49.226;8.108;2024-01-16T16:02:21;-2.20;99.90
4520;DHT22;2272;49.226;8.108;2024-01-16T16:04:48;-2.40;99.90
4520;DHT22;2272;49.226;8.108;2024-01-16T16:07:15;-2.50;99.90
4520;DHT22;2272;49.226;8.108;2024-01-16T16:09:44;-2.60;99.90
4520;DHT22;2272;49.226;8.108;2024-01-16T16:12:11;-2.80;99.90
4520;DHT22;2272;49.226;8.108;2024-01-16T16:14:37;-2.80;99.90